Juniata, NE (68955)

9:15 AM CST on December 20, 2014 (GMT -0600)
Hastings Municipal | Change Station
CLOSE
Current Station
Airport
Location: Hastings,
Elevation: 1959 ft
Nearby Weather Stations
Active Advisory: Dense Fog Advisory

Elev 1959 ft 40.60 °N, 98.43 °W | Updated 22 minutes ago

Overcast
Overcast
27 °F
Feels Like 27 °F
N
0
Wind Variable Wind from North

Today
High -- | Low -- °F
--% Chance of Precip.
Yesterday
High -- | Low -- °F
Precip. -- in
7:53 AM 5:09 PM
Waning Crescent, 3% visible
Pressure 30.12 in
Visibility 0.2 miles
Clouds
Dew Point 22 °F
Humidity 81%
Rainfall 0.00 in
Snow Depth Not available.
UV Not available.
Pollen .10 out of 12
Air Quality Not available.
Flu Activity Not available.
METAR KHSI 201453Z AUTO 00000KT M1/4SM HZ VV002 M03/M06 A3006 RMK AO2 SLP199 I1001 I3002 T10281056 52007

More Conditions Fewer Conditions

Pressure 30.12 in
Visibility 0.2 miles
Clouds
Dew Point 22 °F
Humidity 81%
Rainfall 0.00 in
Snow Depth Not available.
UV Not available.
Pollen .10 out of 12
Air Quality Not available.
Flu Activity Not available.
METAR KHSI 201453Z AUTO 00000KT M1/4SM HZ VV002 M03/M06 A3006 RMK AO2 SLP199 I1001 I3002 T10281056 52007

More Conditions Fewer Conditions

10-Day Weather Forecast

Almanac

Astronomy

Dec. 20, 2014 Rise Set
Actual Time
Civil Twilight
Nautical Twilight
Astronomical Twilight
Moon
Length of Visible Light
Length of Day
Tomorrow will be .
, % of the Moon is Illuminated

Today's Extremes

State Highs State Lows

Community

WunderPhotos

Upload Photos

1,779,198 photos uploaded!

WunderBlogs® & News

Nearby

Air Quality

  Air Quality AQ Index Pollutant
Not available.

Snow Depth

Station Depth Elevation

Earthquake Activity

City Distance Mag. Time & Date
Minimum magnitude displayed is 2.5.

Coastal Water Temperatures

Place Temperature

Nearby Weather Stations